Terminal Aerodrome Forecast
Issued by NWS

Home | Current Version | Previous Version | Text Only | Print | Product List | Glossary Off
Versions: 1 2 3 4 5 6 7 8 9 10 11 12 13 14 15 16 17 18 19

667
FTUS43 KABR 171123
TAFATY
TAF
KATY 171123Z 1712/1812 VRB05KT 6SM BR OVC035
     FM171400 VRB05KT 2SM BR OVC025
     FM171700 VRB05KT P6SM OVC200
     FM180600 21011KT P6SM BKN200=

USA.gov is the U.S. government's official web portal to all federal, state and local government web resources and services.